Time;durP1;ratioP1;P1;durP2;ratioP2;P2;SDS_P1;SDS_P2;PMS_P1;PMS_P2;Temp;Humidity;BMP_temperature;BMP_pressure;BME280_temperature;BME280_humidity;BME280_pressure;Samples;Min_cycle;Max_cycle;Signal;HPM_P1;HPM_P2
2021/06/26 00:01:37;;;;;;;0.10;0.10;;;;;;;14.69;77.28;102032.63;10395658;28;20290;-57
2021/06/26 00:06:38;;;;;;;0.10;0.10;;;;;;;14.63;75.56;102025.19;10392940;28;20040;-59
2021/06/26 00:11:38;;;;;;;0.10;0.10;;;;;;;14.69;74.97;102027.25;10384888;28;20439;-58
2021/06/26 00:16:39;;;;;;;0.10;0.10;;;;;;;14.58;78.63;102031.03;10398041;28;20087;-59
2021/06/26 00:21:39;;;;;;;0.10;0.10;;;;;;;14.28;78.29;102026.88;10400804;28;20413;-57
2021/06/26 00:26:39;;;;;;;0.10;0.10;;;;;;;14.27;77.74;102027.88;10375914;28;20324;-59
2021/06/26 00:31:40;;;;;;;0.07;0.07;;;;;;;14.31;79.48;102028.41;10394575;28;20271;-59
2021/06/26 00:36:40;;;;;;;0.10;0.10;;;;;;;14.24;79.39;102025.50;10386207;28;20402;-58
2021/06/26 00:41:41;;;;;;;0.10;0.10;;;;;;;14.19;78.95;102033.16;10392157;28;20029;-58
2021/06/26 00:46:41;;;;;;;0.10;0.10;;;;;;;14.09;80.48;102027.91;10380053;28;20276;-59
2021/06/26 00:51:41;;;;;;;0.10;0.10;;;;;;;13.95;81.27;102039.13;10381241;28;20018;-59
2021/06/26 00:56:42;;;;;;;0.20;0.20;;;;;;;13.86;81.32;102032.84;10390427;28;20026;-58
2021/06/26 01:01:42;;;;;;;0.10;0.10;;;;;;;13.85;81.35;102025.81;10375016;28;20405;-57
2021/06/26 01:06:42;;;;;;;0.15;0.15;;;;;;;13.88;83.39;102038.06;10384855;28;20029;-57
2021/06/26 01:11:43;;;;;;;0.10;0.10;;;;;;;13.94;82.44;102032.09;10392853;28;20029;-59
2021/06/26 01:16:43;;;;;;;0.10;0.10;;;;;;;13.95;82.32;102015.88;10393364;28;20037;-58
2021/06/26 01:21:44;;;;;;;0.13;0.13;;;;;;;14.03;84.03;102031.19;10385066;28;20105;-57
2021/06/26 01:26:44;;;;;;;0.10;0.10;;;;;;;14.08;83.39;102034.25;10386210;28;20120;-59
2021/06/26 01:31:45;;;;;;;0.10;0.10;;;;;;;14.18;82.56;102028.81;10382037;28;20113;-56
2021/06/26 01:36:45;;;;;;;0.10;0.10;;;;;;;14.23;82.74;102029.19;10382174;28;20036;-58
2021/06/26 01:41:45;;;;;;;0.10;0.10;;;;;;;14.22;80.97;102025.69;10400486;28;20378;-57
2021/06/26 01:46:46;;;;;;;0.10;0.10;;;;;;;14.22;80.62;102033.72;10395930;28;20029;-58
2021/06/26 01:51:46;;;;;;;0.00;0.00;;;;;;;14.24;82.64;102038.91;10392394;28;20264;-58
2021/06/26 01:56:47;;;;;;;0.10;0.10;;;;;;;14.26;81.29;102042.28;10392246;28;20091;-56
2021/06/26 02:01:47;;;;;;;0.10;0.10;;;;;;;14.24;83.65;102028.19;10383689;28;20054;-57
2021/06/26 02:06:47;;;;;;;0.10;0.10;;;;;;;14.24;82.11;102034.38;10381718;28;20025;-59
2021/06/26 02:11:48;;;;;;;0.10;0.10;;;;;;;14.25;82.19;102035.22;10391826;28;20739;-55
2021/06/26 02:16:48;;;;;;;0.10;0.10;;;;;;;14.24;84.54;102033.56;10375820;28;20022;-58
2021/06/26 02:21:48;;;;;;;0.10;0.10;;;;;;;14.21;83.60;102036.53;10386645;28;20292;-57
2021/06/26 02:26:49;;;;;;;0.20;0.20;;;;;;;14.17;84.50;102030.66;10402233;28;20503;-57
2021/06/26 02:31:49;;;;;;;0.10;0.10;;;;;;;14.14;83.76;102033.66;10385409;28;20260;-58
2021/06/26 02:36:49;;;;;;;0.20;0.20;;;;;;;14.18;82.41;102034.16;10394080;28;20097;-59
2021/06/26 02:41:50;;;;;;;0.10;0.10;;;;;;;14.22;81.37;102041.75;10393995;28;20034;-58
2021/06/26 02:46:51;;;;;;;0.10;0.10;;;;;;;14.25;81.93;102038.78;10398285;28;20268;-57
2021/06/26 02:51:51;;;;;;;0.10;0.10;;;;;;;14.25;82.80;102044.13;10404486;28;20464;-57
2021/06/26 02:56:51;;;;;;;0.10;0.10;;;;;;;14.23;83.73;102050.63;10393189;28;20022;-57
2021/06/26 03:01:52;;;;;;;0.10;0.10;;;;;;;14.18;83.50;102047.56;10399039;28;20116;-57
2021/06/26 03:06:52;;;;;;;0.10;0.10;;;;;;;14.20;83.05;102043.75;10395996;28;20433;-58
2021/06/26 03:11:52;;;;;;;0.20;0.20;;;;;;;14.24;82.28;102036.22;10395850;28;20105;-58
2021/06/26 03:16:53;;;;;;;0.10;0.10;;;;;;;14.30;81.54;102043.66;10404300;28;20272;-57
2021/06/26 03:21:53;;;;;;;0.10;0.10;;;;;;;14.33;82.40;102048.72;10393444;28;20027;-58
2021/06/26 03:26:55;;;;;;;0.10;0.10;;;;;;;14.29;83.06;102044.66;10400672;28;20326;-56
2021/06/26 03:31:56;;;;;;;0.10;0.10;;;;;;;14.17;84.31;102043.22;10399960;28;20307;-58
2021/06/26 03:36:56;;;;;;;0.10;0.10;;;;;;;14.10;84.98;102042.97;10387393;28;20060;-59
2021/06/26 03:41:56;;;;;;;0.10;0.10;;;;;;;14.03;85.00;102045.41;10395876;28;20307;-58
2021/06/26 03:46:57;;;;;;;0.00;0.00;;;;;;;14.15;84.83;102059.44;10396424;28;20100;-58
2021/06/26 03:51:57;;;;;;;0.13;0.13;;;;;;;14.37;84.80;102059.94;10395986;28;20029;-57
2021/06/26 03:56:58;;;;;;;0.10;0.10;;;;;;;14.61;84.56;102062.06;10393897;28;20377;-58
2021/06/26 04:01:58;;;;;;;0.10;0.10;;;;;;;15.28;81.64;102059.63;10390799;28;20034;-56
2021/06/26 04:06:59;;;;;;;0.17;0.17;;;;;;;15.51;80.12;102071.50;10401223;28;20372;-59
2021/06/26 04:11:59;;;;;;;0.10;0.10;;;;;;;16.37;78.29;102061.47;10404088;28;20013;-58
2021/06/26 04:16:59;;;;;;;0.20;0.20;;;;;;;17.11;75.13;102057.75;10385572;28;20024;-58
2021/06/26 04:22:00;;;;;;;0.13;0.13;;;;;;;18.04;72.34;102054.31;10389536;28;20053;-57
2021/06/26 04:27:00;;;;;;;0.10;0.10;;;;;;;18.88;69.46;102046.25;10422529;22;20406;-61
2021/06/26 04:32:01;;;;;;;0.10;0.10;;;;;;;19.59;67.07;102046.56;10385716;28;20021;-63
2021/06/26 04:37:01;;;;;;;0.10;0.10;;;;;;;19.97;64.86;102048.28;10369212;28;20271;-63
2021/06/26 04:42:02;;;;;;;0.10;0.10;;;;;;;20.52;62.58;102049.44;10368249;28;20064;-64
2021/06/26 04:47:02;;;;;;;0.10;0.10;;;;;;;21.14;61.15;102058.66;10368434;28;20427;-63
2021/06/26 04:52:04;;;;;;;0.00;0.00;;;;;;;21.81;59.40;102055.22;10367964;28;20018;-64
2021/06/26 04:57:04;;;;;;;0.10;0.10;;;;;;;22.35;56.33;102064.38;10353289;28;20033;-64
2021/06/26 05:02:05;;;;;;;0.10;0.10;;;;;;;22.45;55.38;102063.94;10407321;28;20021;-64
2021/06/26 05:07:05;;;;;;;0.03;0.03;;;;;;;21.29;59.50;102063.94;10408805;28;20036;-64
2021/06/26 05:12:06;;;;;;;0.10;0.10;;;;;;;20.30;62.39;102076.53;10408640;28;20375;-64
2021/06/26 05:17:07;;;;;;;0.00;0.00;;;;;;;19.67;64.36;102075.41;10408230;28;20028;-64
2021/06/26 05:22:07;;;;;;;0.10;0.10;;;;;;;19.43;65.78;102079.19;10408299;28;20025;-64
2021/06/26 05:27:08;;;;;;;0.10;0.10;;;;;;;19.19;65.59;102075.75;10406705;28;20036;-64
2021/06/26 05:32:09;;;;;;;0.10;0.10;;;;;;;19.08;67.30;102075.38;10406770;28;20091;-63
2021/06/26 05:37:10;;;;;;;0.10;0.10;;;;;;;18.92;67.87;102082.63;10396968;28;20018;-63
2021/06/26 05:42:10;;;;;;;0.10;0.10;;;;;;;18.95;68.82;102086.81;10366637;28;20030;-64
2021/06/26 05:47:10;;;;;;;0.10;0.10;;;;;;;20.31;65.61;102082.78;10366979;28;20283;-63
2021/06/26 05:52:11;;;;;;;0.10;0.10;;;;;;;21.90;62.43;102085.72;10366206;28;20105;-64
2021/06/26 05:57:11;;;;;;;0.10;0.10;;;;;;;23.72;55.46;102093.44;10369855;28;20045;-64
2021/06/26 06:02:15;;;;;;;0.00;0.00;;;;;;;24.00;52.74;102086.84;10413773;28;20070;-63
2021/06/26 06:07:15;;;;;;;0.10;0.10;;;;;;;23.19;55.06;102095.50;10412451;28;20028;-64
2021/06/26 06:12:15;;;;;;;0.10;0.10;;;;;;;22.23;57.77;102104.84;10412047;28;20032;-63
2021/06/26 06:17:16;;;;;;;0.10;0.10;;;;;;;21.56;58.17;102113.78;10416148;28;20036;-63
2021/06/26 06:22:16;;;;;;;0.10;0.10;;;;;;;21.41;57.55;102111.16;10415816;28;20029;-63
2021/06/26 06:27:17;;;;;;;0.10;0.10;;;;;;;21.48;58.44;102112.03;10408820;28;20033;-63
2021/06/26 06:32:18;;;;;;;0.00;0.00;;;;;;;21.72;60.14;102126.13;10374418;28;20032;-63
2021/06/26 06:37:18;;;;;;;0.10;0.10;;;;;;;22.06;58.74;102125.22;10374766;28;20021;-63
2021/06/26 06:42:19;;;;;;;0.10;0.10;;;;;;;22.12;57.17;102125.25;10373849;28;20026;-63
2021/06/26 06:47:19;;;;;;;0.10;0.10;;;;;;;22.21;56.67;102125.94;10374250;28;20276;-63
2021/06/26 06:52:20;;;;;;;0.10;0.10;;;;;;;22.45;56.45;102127.22;10373647;28;20021;-63
2021/06/26 06:57:23;;;;;;;0.10;0.10;;;;;;;22.58;53.70;102129.13;10373822;28;20017;-63
2021/06/26 07:02:23;;;;;;;0.10;0.10;;;;;;;22.71;53.09;102128.28;10355807;28;20676;-63
2021/06/26 07:07:24;;;;;;;0.10;0.10;;;;;;;22.89;56.77;102133.09;10373309;28;20026;-63
2021/06/26 07:12:24;;;;;;;0.10;0.10;;;;;;;23.27;55.11;102127.84;10372365;28;20065;-63
2021/06/26 07:17:25;;;;;;;0.10;0.10;;;;;;;23.25;48.80;102135.41;10373193;28;20393;-63
2021/06/26 07:22:25;;;;;;;0.10;0.10;;;;;;;23.18;51.17;102129.13;10372537;28;20038;-63
2021/06/26 07:27:25;;;;;;;0.10;0.10;;;;;;;23.46;54.02;102134.31;10371277;28;20481;-63
2021/06/26 07:32:26;;;;;;;0.10;0.10;;;;;;;24.02;49.72;102125.53;10371681;28;20425;-63
2021/06/26 07:37:26;;;;;;;0.10;0.10;;;;;;;24.70;49.83;102124.09;10372448;28;20021;-63
2021/06/26 07:42:27;;;;;;;0.10;0.10;;;;;;;24.72;47.37;102125.53;10371552;28;20049;-63
2021/06/26 07:47:27;;;;;;;0.10;0.10;;;;;;;24.80;49.64;102127.97;10372210;28;20030;-63
2021/06/26 07:52:28;;;;;;;0.10;0.10;;;;;;;25.57;45.93;102122.22;10371372;28;20092;-63
2021/06/26 07:57:29;;;;;;;0.10;0.10;;;;;;;25.79;45.15;102124.47;10370043;28;20265;-63
2021/06/26 08:02:29;;;;;;;0.10;0.10;;;;;;;25.95;43.19;102118.41;10370872;28;20575;-63
2021/06/26 08:07:30;;;;;;;0.10;0.10;;;;;;;26.33;46.26;102106.31;10372038;28;20037;-63
2021/06/26 08:12:32;;;;;;;0.10;0.10;;;;;;;26.60;42.45;102104.84;10370544;28;20025;-63
2021/06/26 08:17:32;;;;;;;0.10;0.10;;;;;;;26.78;45.71;102109.38;10370905;28;20030;-63
2021/06/26 08:22:33;;;;;;;0.10;0.10;;;;;;;26.98;45.32;102117.22;10369046;28;20034;-63
2021/06/26 08:27:33;;;;;;;0.10;0.10;;;;;;;27.18;43.26;102108.69;10370204;28;20096;-63
2021/06/26 08:32:34;;;;;;;0.10;0.10;;;;;;;27.19;43.77;102106.78;10369449;28;20022;-64
2021/06/26 08:37:35;;;;;;;0.10;0.10;;;;;;;27.33;44.69;102108.19;10370463;28;20370;-64
2021/06/26 08:42:35;;;;;;;0.10;0.10;;;;;;;26.82;41.96;102101.53;10369789;28;20052;-63
2021/06/26 08:47:36;;;;;;;0.10;0.10;;;;;;;26.39;45.26;102103.47;10370383;28;20029;-63
2021/06/26 08:52:37;;;;;;;0.10;0.10;;;;;;;26.56;44.42;102109.13;10371402;28;20288;-63
2021/06/26 08:57:39;;;;;;;0.10;0.10;;;;;;;27.13;44.48;102108.53;10371626;28;20119;-63
2021/06/26 09:02:49;;;;;;;0.10;0.10;;;;;;;28.02;42.51;102105.53;10401079;28;20057;-63
2021/06/26 09:07:50;;;;;;;0.10;0.10;;;;;;;28.07;42.07;102102.03;10403435;28;20392;-63
2021/06/26 09:12:51;;;;;;;0.10;0.10;;;;;;;27.54;42.80;102103.97;10408121;28;20028;-63
2021/06/26 09:17:53;;;;;;;0.10;0.10;;;;;;;27.40;43.98;102106.19;10395226;28;20465;-64
2021/06/26 09:22:55;;;;;;;0.10;0.10;;;;;;;27.20;40.40;102094.75;10366095;28;20018;-64
2021/06/26 09:28:00;;;;;;;0.10;0.10;;;;;;;27.41;44.26;102107.84;10389860;28;20076;-64
2021/06/26 09:33:22;;;;;;;0.10;0.10;;;;;;;27.42;43.23;102101.28;10406443;28;20017;-64
2021/06/26 09:38:22;;;;;;;0.10;0.10;;;;;;;27.24;39.38;102109.66;10369108;28;20030;-64
2021/06/26 09:43:30;;;;;;;0.10;0.10;;;;;;;27.06;44.31;102114.16;10368820;28;20026;-64
2021/06/26 09:48:30;;;;;;;0.10;0.10;;;;;;;26.85;39.85;102114.75;10369142;28;20453;-64
2021/06/26 09:53:31;;;;;;;0.10;0.10;;;;;;;26.92;39.27;102109.16;10377350;28;20054;-63
2021/06/26 09:58:36;;;;;;;0.10;0.10;;;;;;;26.72;40.76;102117.69;10373725;28;20017;-64
2021/06/26 10:03:37;;;;;;;0.10;0.10;;;;;;;26.59;41.25;102107.84;10377074;28;20033;-64
2021/06/26 10:08:38;;;;;;;0.00;0.00;;;;;;;26.65;42.28;102101.41;10367357;28;20026;-64
2021/06/26 10:13:41;;;;;;;0.10;0.10;;;;;;;26.77;41.95;102104.16;10366379;28;20030;-64
2021/06/26 10:18:41;;;;;;;0.10;0.10;;;;;;;27.07;41.08;102110.34;10366634;28;20456;-64
2021/06/26 10:23:42;;;;;;;0.10;0.10;;;;;;;26.95;39.98;102101.31;10366106;28;20049;-64
2021/06/26 10:33:46;;;;;;;0.20;0.20;;;;;;;26.26;41.96;102105.56;10356790;28;20100;-60
2021/06/26 10:38:46;;;;;;;0.10;0.10;;;;;;;26.01;40.95;102103.84;10366486;28;20510;-61
2021/06/26 10:43:59;;;;;;;0.10;0.10;;;;;;;26.04;44.48;102100.63;10366823;28;20096;-61
2021/06/26 10:49:05;;;;;;;0.10;0.10;;;;;;;26.64;44.15;102097.00;10371962;28;20014;-59
2021/06/26 10:54:19;;;;;;;0.10;0.10;;;;;;;26.62;43.40;102093.69;10372284;28;20492;-61
2021/06/26 10:59:20;;;;;;;0.10;0.10;;;;;;;26.03;44.80;102098.13;10372210;28;20022;-59
2021/06/26 11:04:22;;;;;;;0.10;0.10;;;;;;;25.26;45.13;102098.66;10371511;28;20030;-58
2021/06/26 11:09:22;;;;;;;0.10;0.10;;;;;;;24.59;46.76;102095.69;10372209;28;20029;-60
2021/06/26 11:14:24;;;;;;;0.10;0.10;;;;;;;24.70;48.60;102094.13;10371960;28;20036;-58
2021/06/26 11:19:30;;;;;;;0.00;0.00;;;;;;;25.24;49.58;102090.66;10371885;28;20025;-58
2021/06/26 11:24:33;;;;;;;0.10;0.10;;;;;;;25.92;44.19;102092.41;10370804;28;20075;-60
2021/06/26 11:29:39;;;;;;;0.10;0.10;;;;;;;26.25;43.63;102088.34;10370716;28;20017;-61
2021/06/26 11:34:43;;;;;;;0.10;0.10;;;;;;;26.57;44.60;102083.47;10370833;28;20117;-61
2021/06/26 11:39:43;;;;;;;0.10;0.10;;;;;;;26.95;45.89;102095.84;10370473;28;20507;-61
2021/06/26 11:44:45;;;;;;;0.00;0.00;;;;;;;27.15;45.14;102092.78;10370363;28;20026;-61
2021/06/26 11:49:46;;;;;;;0.10;0.10;;;;;;;27.51;43.25;102082.59;10352720;28;20022;-60
2021/06/26 11:54:47;;;;;;;0.10;0.10;;;;;;;27.62;42.68;102080.91;10370312;28;20112;-59
2021/06/26 11:59:48;;;;;;;0.10;0.10;;;;;;;27.75;43.97;102084.19;10369574;28;20113;-60
2021/06/26 12:04:48;;;;;;;0.10;0.10;;;;;;;27.37;43.35;102079.28;10351490;28;20025;-62
2021/06/26 12:09:49;;;;;;;0.10;0.10;;;;;;;26.93;43.76;102073.38;10368951;28;20022;-59
2021/06/26 12:14:49;;;;;;;0.10;0.10;;;;;;;26.97;42.46;102074.56;10369742;28;20037;-61
2021/06/26 12:19:58;;;;;;;0.10;0.10;;;;;;;26.76;45.56;102075.16;10368933;28;20439;-60
2021/06/26 12:25:11;;;;;;;0.10;0.10;;;;;;;26.00;43.55;102079.47;10366841;28;20030;-62
2021/06/26 12:30:16;;;;;;;0.10;0.10;;;;;;;26.26;44.96;102070.88;10361051;28;20469;-61
2021/06/26 12:35:18;;;;;;;0.10;0.10;;;;;;;26.27;43.77;102074.44;10362435;28;20026;-61
2021/06/26 12:40:22;;;;;;;0.10;0.10;;;;;;;26.19;45.24;102065.53;10362866;28;20013;-62
2021/06/26 12:45:35;;;;;;;0.03;0.03;;;;;;;26.20;45.71;102071.81;10344290;28;20033;-62
2021/06/26 12:56:13;;;;;;;0.10;0.10;;;;;;;26.31;46.97;102056.53;10361160;28;20061;-62
2021/06/26 13:01:13;;;;;;;0.00;0.00;;;;;;;26.51;45.52;102057.09;10364147;28;20034;-62
2021/06/26 13:06:13;;;;;;;0.10;0.10;;;;;;;26.57;44.58;102055.31;10367850;28;20377;-64
2021/06/26 13:11:14;;;;;;;0.10;0.10;;;;;;;26.51;43.61;102059.81;10365260;28;20020;-63
2021/06/26 13:16:15;;;;;;;0.10;0.10;;;;;;;26.16;44.93;102060.53;10367058;28;20025;-63
2021/06/26 13:21:15;;;;;;;0.00;0.00;;;;;;;26.45;43.65;102051.72;10364084;28;20029;-62
2021/06/26 13:26:15;;;;;;;0.10;0.10;;;;;;;26.44;43.94;102045.38;10366656;28;20025;-61
2021/06/26 13:31:16;;;;;;;0.10;0.10;;;;;;;26.59;44.30;102044.97;10347477;28;20025;-62
2021/06/26 13:36:17;;;;;;;0.10;0.10;;;;;;;26.64;44.33;102040.44;10365239;28;20014;-60
2021/06/26 13:41:17;;;;;;;0.10;0.10;;;;;;;26.41;44.74;102035.78;10365865;28;20022;-62
2021/06/26 13:46:18;;;;;;;0.10;0.10;;;;;;;26.41;44.91;102046.72;10366228;28;20022;-62
2021/06/26 13:51:20;;;;;;;0.10;0.10;;;;;;;26.11;43.49;102030.38;10365816;28;20028;-59
2021/06/26 13:56:21;;;;;;;;;;;;;;;26.29;43.88;102037.66;10366930;28;20221;-60
2021/06/26 14:01:22;;;;;;;0.00;0.00;;;;;;;26.03;43.92;102038.91;10365570;28;19914;-59
2021/06/26 14:06:22;;;;;;;0.10;0.10;;;;;;;25.82;43.70;102015.69;10366976;28;20358;-63
2021/06/26 14:11:22;;;;;;;0.10;0.10;;;;;;;25.86;44.34;102022.38;10365716;28;20052;-60
2021/06/26 14:16:23;;;;;;;0.10;0.10;;;;;;;25.87;45.07;102023.19;10365899;28;20018;-62
2021/06/26 14:21:24;;;;;;;0.00;0.00;;;;;;;25.89;45.34;102015.59;10370251;28;20084;-59
2021/06/26 14:26:24;;;;;;;0.10;0.10;;;;;;;25.53;45.95;102026.34;10373493;28;20279;-61
2021/06/26 14:31:25;;;;;;;0.10;0.10;;;;;;;25.37;47.34;102015.25;10371593;28;20022;-61
2021/06/26 14:36:25;;;;;;;0.00;0.00;;;;;;;25.53;49.04;102022.78;10373127;28;20029;-61
2021/06/26 14:41:25;;;;;;;0.10;0.10;;;;;;;25.64;46.81;102022.00;10372546;28;20544;-62
2021/06/26 14:46:26;;;;;;;0.10;0.10;;;;;;;25.72;47.22;102010.78;10373226;28;20083;-61
2021/06/26 14:51:26;;;;;;;0.10;0.10;;;;;;;25.81;47.14;102007.72;10371919;28;20384;-60
2021/06/26 14:56:27;;;;;;;0.10;0.10;;;;;;;25.95;44.73;102010.06;10372488;28;20022;-64
2021/06/26 15:01:27;;;;;;;0.10;0.10;;;;;;;26.00;46.42;102001.13;10371577;28;20284;-59
2021/06/26 15:06:28;;;;;;;0.10;0.10;;;;;;;26.04;47.08;101998.81;10371906;28;20084;-63
2021/06/26 15:11:28;;;;;;;0.00;0.00;;;;;;;25.87;47.51;102006.81;10372161;28;20107;-63
2021/06/26 15:16:28;;;;;;;0.10;0.10;;;;;;;25.71;49.43;102000.94;10371862;28;20127;-61
2021/06/26 15:21:29;;;;;;;0.10;0.10;;;;;;;25.41;48.94;101994.63;10368590;28;20048;-62
2021/06/26 15:26:30;;;;;;;0.10;0.10;;;;;;;25.40;49.30;101996.53;10369014;28;20481;-63
2021/06/26 15:31:35;;;;;;;0.10;0.10;;;;;;;25.28;47.59;101998.38;10365943;28;20049;-61
2021/06/26 15:36:40;;;;;;;0.00;0.00;;;;;;;25.26;48.40;101990.41;10369310;28;20477;-60
2021/06/26 15:41:42;;;;;;;0.00;0.00;;;;;;;25.28;48.39;101988.28;10369592;28;20389;-62
2021/06/26 15:46:43;;;;;;;0.00;0.00;;;;;;;25.27;48.59;101988.50;10371071;28;20026;-62
2021/06/26 15:51:43;;;;;;;0.10;0.10;;;;;;;25.33;50.39;101992.19;10369173;28;20021;-60
2021/06/26 15:56:44;;;;;;;0.10;0.10;;;;;;;25.43;48.46;101987.06;10369982;28;20356;-59
2021/06/26 16:01:44;;;;;;;0.10;0.10;;;;;;;25.36;47.81;101978.94;10368408;28;20022;-60
2021/06/26 16:06:45;;;;;;;0.10;0.10;;;;;;;25.41;48.74;101972.81;10370644;28;20481;-61
2021/06/26 16:11:45;;;;;;;0.10;0.10;;;;;;;25.35;46.49;101971.00;10369843;28;20556;-62
2021/06/26 16:16:45;;;;;;;0.10;0.10;;;;;;;25.35;49.06;101960.91;10371103;28;20424;-60
2021/06/26 16:21:46;;;;;;;0.10;0.10;;;;;;;25.11;49.18;101968.13;10368546;28;20030;-61
2021/06/26 16:26:46;;;;;;;0.10;0.10;;;;;;;24.66;52.74;101968.41;10367850;28;20053;-60
2021/06/26 16:31:47;;;;;;;0.10;0.10;;;;;;;24.54;50.39;101964.75;10369329;28;20022;-59
2021/06/26 16:36:50;;;;;;;0.20;0.20;;;;;;;24.67;50.77;101956.47;10369126;28;20113;-64
2021/06/26 16:41:51;;;;;;;0.10;0.10;;;;;;;24.61;52.53;101954.66;10368638;28;20401;-61
2021/06/26 16:46:51;;;;;;;0.00;0.00;;;;;;;24.35;54.36;101964.72;10367489;28;20030;-60
2021/06/26 16:51:52;;;;;;;0.10;0.10;;;;;;;24.07;56.40;101973.31;10350363;28;20022;-60
2021/06/26 16:56:52;;;;;;;0.10;0.10;;;;;;;23.86;57.93;101969.06;10368577;28;20029;-60
2021/06/26 17:01:53;;;;;;;0.10;0.10;;;;;;;23.53;56.99;101966.50;10368009;28;20061;-60
2021/06/26 17:06:53;;;;;;;0.00;0.00;;;;;;;23.29;57.16;101959.94;10368422;28;20034;-62
2021/06/26 17:11:53;;;;;;;0.10;0.10;;;;;;;23.16;57.52;101966.28;10367794;28;21557;-61
2021/06/26 17:16:54;;;;;;;0.10;0.10;;;;;;;23.10;57.50;101969.03;10368028;28;20028;-63
2021/06/26 17:21:54;;;;;;;0.10;0.10;;;;;;;22.94;56.66;101962.97;10366873;28;20033;-62
2021/06/26 17:26:54;;;;;;;0.10;0.10;;;;;;;22.81;59.44;101963.03;10364820;28;20356;-61
2021/06/26 17:31:55;;;;;;;0.10;0.10;;;;;;;22.70;57.60;101958.25;10351524;28;20022;-62
2021/06/26 17:36:55;;;;;;;0.10;0.10;;;;;;;22.63;58.49;101960.13;10367905;28;20088;-61
2021/06/26 17:41:55;;;;;;;0.10;0.10;;;;;;;22.55;57.73;101962.03;10366157;28;20033;-61
2021/06/26 17:46:56;;;;;;;0.10;0.10;;;;;;;22.57;58.76;101956.38;10365042;28;20041;-62
2021/06/26 17:51:56;;;;;;;0.10;0.10;;;;;;;22.52;57.81;101970.59;10362402;28;20480;-62
2021/06/26 17:56:57;;;;;;;0.10;0.10;;;;;;;22.47;58.98;101970.41;10372480;28;20034;-62
2021/06/26 18:01:58;;;;;;;0.10;0.10;;;;;;;22.41;58.60;101970.41;10374394;28;20330;-60
2021/06/26 18:06:58;;;;;;;0.10;0.10;;;;;;;22.35;58.71;101972.06;10374354;28;20028;-60
2021/06/26 18:11:58;;;;;;;0.10;0.10;;;;;;;22.28;59.56;101980.22;10372472;28;20053;-60
2021/06/26 18:16:59;;;;;;;0.10;0.10;;;;;;;22.23;60.20;101977.31;10374090;28;20030;-59
2021/06/26 18:22:00;;;;;;;0.10;0.10;;;;;;;22.15;61.63;101974.75;10371472;28;20104;-59
2021/06/26 18:27:00;;;;;;;0.10;0.10;;;;;;;22.08;61.30;101979.34;10372259;28;20253;-61
2021/06/26 18:32:01;;;;;;;0.10;0.10;;;;;;;21.98;62.43;101985.16;10371112;28;20409;-61
2021/06/26 18:37:02;;;;;;;0.10;0.10;;;;;;;21.88;62.85;101987.47;10374029;28;20030;-60
2021/06/26 18:42:04;;;;;;;0.10;0.10;;;;;;;21.77;62.85;101990.78;10374118;28;20485;-62
2021/06/26 18:47:04;;;;;;;0.10;0.10;;;;;;;21.66;62.75;101986.78;10374687;28;20479;-61
2021/06/26 18:52:05;;;;;;;0.10;0.10;;;;;;;21.55;63.65;101998.22;10373512;28;20021;-62
2021/06/26 18:57:05;;;;;;;0.10;0.10;;;;;;;21.40;64.12;102003.78;10356289;28;20493;-62
2021/06/26 19:02:07;;;;;;;0.00;0.00;;;;;;;21.20;64.76;102012.63;10373201;28;20037;-61
2021/06/26 19:07:07;;;;;;;0.10;0.10;;;;;;;21.01;65.62;102008.78;10370404;28;20037;-60
2021/06/26 19:12:08;;;;;;;0.10;0.10;;;;;;;20.82;67.02;102004.09;10369631;28;20500;-61
2021/06/26 19:17:08;;;;;;;0.10;0.10;;;;;;;20.61;67.89;102006.84;10371254;28;20440;-60
2021/06/26 19:22:08;;;;;;;0.10;0.10;;;;;;;20.43;68.75;102005.44;10367654;28;20028;-59
2021/06/26 19:27:09;;;;;;;0.08;0.08;;;;;;;20.15;70.53;102018.91;10371262;28;20142;-60
2021/06/26 19:32:14;;;;;;;0.10;0.10;;;;;;;19.76;71.88;102013.97;10370382;28;20018;-59
2021/06/26 19:37:15;;;;;;;0.10;0.10;;;;;;;19.54;72.64;102031.94;10370674;28;20026;-62
2021/06/26 19:42:15;;;;;;;0.10;0.10;;;;;;;19.34;73.34;102023.59;10370067;28;20079;-62
2021/06/26 19:47:15;;;;;;;0.10;0.10;;;;;;;19.23;74.13;102030.31;10370193;28;20053;-61
2021/06/26 19:52:16;;;;;;;0.10;0.10;;;;;;;19.11;74.39;102035.38;10350801;28;20033;-59
2021/06/26 19:57:16;;;;;;;0.10;0.10;;;;;;;19.04;74.47;102034.41;10366426;28;20292;-59
2021/06/26 20:02:17;;;;;;;0.10;0.10;;;;;;;18.99;74.53;102040.38;10369322;28;20026;-62
2021/06/26 20:07:17;;;;;;;0.10;0.10;;;;;;;18.94;74.42;102042.78;10369686;28;20374;-61
2021/06/26 20:12:18;;;;;;;0.10;0.10;;;;;;;18.88;74.40;102043.53;10368642;28;20272;-59
2021/06/26 20:17:18;;;;;;;0.10;0.10;;;;;;;18.84;74.08;102049.47;10369176;28;20028;-62
2021/06/26 20:22:19;;;;;;;0.10;0.10;;;;;;;18.72;74.60;102043.66;10366355;28;20025;-61
2021/06/26 20:27:19;;;;;;;0.10;0.10;;;;;;;18.61;74.84;102052.19;10368891;28;20022;-61
2021/06/26 20:32:21;;;;;;;0.10;0.10;;;;;;;18.37;75.38;102053.25;10368341;28;20046;-62
2021/06/26 20:37:21;;;;;;;0.10;0.10;;;;;;;18.01;76.62;102062.75;10368505;28;20385;-63
2021/06/26 20:42:22;;;;;;;0.10;0.10;;;;;;;17.81;77.20;102061.53;10350143;28;20099;-60
2021/06/26 20:47:22;;;;;;;0.10;0.10;;;;;;;17.75;77.66;102062.22;10367012;28;20029;-58
2021/06/26 20:52:22;;;;;;;0.10;0.10;;;;;;;17.77;77.46;102068.25;10366126;28;20267;-60
2021/06/26 20:57:23;;;;;;;0.10;0.10;;;;;;;17.74;77.50;102076.69;10367631;28;20108;-60
2021/06/26 21:02:23;;;;;;;0.10;0.10;;;;;;;17.65;78.25;102076.72;10366978;28;20385;-59
2021/06/26 21:07:23;;;;;;;0.10;0.10;;;;;;;17.63;78.66;102080.63;10367073;28;20665;-58
2021/06/26 21:12:24;;;;;;;0.10;0.10;;;;;;;17.62;78.22;102076.25;10366417;28;20421;-59
2021/06/26 21:17:24;;;;;;;0.10;0.10;;;;;;;17.46;79.22;102082.53;10363394;28;20021;-58
2021/06/26 21:22:25;;;;;;;0.10;0.10;;;;;;;17.29;79.68;102089.00;10361294;28;20106;-60
2021/06/26 21:27:25;;;;;;;0.10;0.10;;;;;;;17.21;81.64;102095.22;10361769;28;20037;-62
2021/06/26 21:32:27;;;;;;;0.10;0.10;;;;;;;17.32;80.34;102100.25;10362611;28;20421;-58
2021/06/26 21:37:27;;;;;;;0.10;0.10;;;;;;;17.42;80.10;102094.66;10368445;28;20504;-59
2021/06/26 21:42:28;;;;;;;0.10;0.10;;;;;;;17.41;79.43;102095.69;10367823;28;20065;-59
2021/06/26 21:47:28;;;;;;;0.10;0.10;;;;;;;17.31;80.29;102095.06;10368621;28;20393;-57
2021/06/26 21:52:28;;;;;;;0.10;0.10;;;;;;;17.17;79.98;102092.06;10363588;28;20496;-59
2021/06/26 21:57:29;;;;;;;0.07;0.07;;;;;;;16.96;80.79;102094.47;10366365;28;20024;-62
2021/06/26 22:02:29;;;;;;;0.10;0.10;;;;;;;16.75;81.62;102093.09;10364403;28;20651;-60
2021/06/26 22:07:29;;;;;;;0.10;0.10;;;;;;;16.62;81.61;102092.75;10366832;28;20014;-60
2021/06/26 22:12:30;;;;;;;0.10;0.10;;;;;;;16.46;81.65;102096.28;10365618;28;20310;-60
2021/06/26 22:17:30;;;;;;;0.10;0.10;;;;;;;16.25;82.79;102106.66;10365743;28;20619;-58
2021/06/26 22:22:36;;;;;;;0.10;0.10;;;;;;;16.18;83.50;102103.81;10365340;28;20294;-59
2021/06/26 22:27:37;;;;;;;0.10;0.10;;;;;;;16.21;83.57;102097.25;10365960;28;20524;-62
2021/06/26 22:32:39;;;;;;;0.10;0.10;;;;;;;16.29;82.99;102105.34;10366167;28;20345;-58
2021/06/26 22:37:40;;;;;;;0.10;0.10;;;;;;;16.39;83.19;102105.19;10367068;28;20026;-60
2021/06/26 22:42:41;;;;;;;0.10;0.10;;;;;;;16.50;82.81;102104.88;10371227;28;20099;-60
2021/06/26 22:47:42;;;;;;;0.10;0.10;;;;;;;16.52;82.51;102108.19;10374469;28;20555;-61
2021/06/26 22:52:43;;;;;;;0.10;0.10;;;;;;;16.51;82.45;102102.00;10373437;28;20469;-58
2021/06/26 22:57:43;;;;;;;0.10;0.10;;;;;;;16.42;82.58;102086.84;10373621;28;20473;-56
2021/06/26 23:02:44;;;;;;;0.10;0.10;;;;;;;16.33;82.54;102098.63;10373116;28;20108;-61
2021/06/26 23:07:45;;;;;;;0.10;0.10;;;;;;;16.23;82.76;102101.47;10373493;28;20424;-57
2021/06/26 23:12:47;;;;;;;0.10;0.10;;;;;;;16.15;82.90;102093.38;10372389;28;20022;-58